Time;durP1;ratioP1;P1;durP2;ratioP2;P2;SDS_P1;SDS_P2;PMS_P1;PMS_P2;Temp;Humidity;BMP_temperature;BMP_pressure;BME280_temperature;BME280_humidity;BME280_pressure;Samples;Min_cycle;Max_cycle;Signal;HPM_P1;HPM_P2
2024/03/04 00:01:46;;;;;;;33.65;20.35;;;;;;;;;;5067318;28;20056;-74
2024/03/04 00:04:12;;;;;;;34.05;20.90;;;;;;;;;;5067839;28;20056;-73
2024/03/04 00:06:39;;;;;;;38.08;22.20;;;;;;;;;;5075070;28;20722;-72
2024/03/04 00:09:08;;;;;;;34.15;20.60;;;;;;;;;;5064573;28;20072;-72
2024/03/04 00:11:35;;;;;;;34.97;22.38;;;;;;;;;;5082445;28;20404;-72
2024/03/04 00:14:02;;;;;;;40.15;21.52;;;;;;;;;;5079692;28;20401;-72
2024/03/04 00:16:29;;;;;;;34.22;20.33;;;;;;;;;;5077064;28;20048;-72
2024/03/04 00:18:59;;;;;;;33.72;20.80;;;;;;;;;;5078507;28;20101;-72
2024/03/04 00:21:27;;;;;;;33.42;20.77;;;;;;;;;;5040095;28;20526;-72
2024/03/04 00:23:54;;;;;;;31.90;20.08;;;;;;;;;;5076702;28;20461;-71
2024/03/04 00:26:21;;;;;;;33.17;20.95;;;;;;;;;;5066967;28;20075;-72
2024/03/04 00:28:47;;;;;;;41.78;23.45;;;;;;;;;;5082227;28;20052;-72
2024/03/04 00:31:14;;;;;;;38.75;22.83;;;;;;;;;;5093969;28;20779;-72
2024/03/04 00:33:41;;;;;;;40.75;24.08;;;;;;;;;;5057986;28;20163;-72
2024/03/04 00:36:07;;;;;;;41.22;24.88;;;;;;;;;;5060489;28;20044;-74
2024/03/04 00:38:34;;;;;;;44.10;23.77;;;;;;;;;;5061732;28;20052;-72
2024/03/04 00:41:01;;;;;;;37.28;22.98;;;;;;;;;;5065460;28;20865;-72
2024/03/04 00:43:28;;;;;;;39.30;23.17;;;;;;;;;;5069579;28;21402;-72
2024/03/04 00:45:54;;;;;;;40.38;24.20;;;;;;;;;;5065036;28;20052;-71
2024/03/04 00:48:21;;;;;;;40.35;23.05;;;;;;;;;;5069263;28;20043;-72
2024/03/04 00:50:47;;;;;;;39.85;22.63;;;;;;;;;;5058961;28;20097;-72
2024/03/04 00:53:14;;;;;;;40.80;23.42;;;;;;;;;;5073060;28;20501;-71
2024/03/04 00:55:40;;;;;;;41.13;23.65;;;;;;;;;;5061885;28;20446;-72
2024/03/04 00:58:07;;;;;;;38.50;20.88;;;;;;;;;;5076480;28;20052;-74
2024/03/04 01:00:34;;;;;;;31.75;19.67;;;;;;;;;;5084977;28;20052;-71
2024/03/04 01:03:00;;;;;;;37.88;21.13;;;;;;;;;;5067194;28;20048;-73
2024/03/04 01:05:27;;;;;;;37.22;21.15;;;;;;;;;;5084303;28;20447;-73
2024/03/04 01:07:53;;;;;;;30.75;18.55;;;;;;;;;;5081242;28;20048;-73
2024/03/04 01:10:20;;;;;;;29.90;19.00;;;;;;;;;;5082537;28;20058;-73
2024/03/04 01:12:47;;;;;;;35.13;19.10;;;;;;;;;;5082504;28;20721;-73
2024/03/04 01:15:13;;;;;;;32.47;19.00;;;;;;;;;;5062330;28;20048;-74
2024/03/04 01:17:40;;;;;;;29.15;17.73;;;;;;;;;;5072822;28;20044;-73
2024/03/04 01:20:10;;;;;;;30.75;18.60;;;;;;;;;;5071941;28;20133;-73
2024/03/04 01:22:37;;;;;;;31.90;18.15;;;;;;;;;;5074143;28;20158;-74
2024/03/04 01:25:03;;;;;;;28.63;18.23;;;;;;;;;;5079512;28;20044;-74
2024/03/04 01:27:30;;;;;;;27.55;17.75;;;;;;;;;;5083571;28;20130;-73
2024/03/04 01:29:56;;;;;;;28.20;18.27;;;;;;;;;;5072063;28;20064;-74
2024/03/04 01:32:24;;;;;;;32.33;18.20;;;;;;;;;;5065468;28;20076;-74
2024/03/04 01:34:50;;;;;;;30.07;18.07;;;;;;;;;;5067037;28;20145;-74
2024/03/04 01:37:17;;;;;;;28.73;17.67;;;;;;;;;;5068874;28;20461;-74
2024/03/04 01:39:43;;;;;;;36.67;18.90;;;;;;;;;;5075487;28;20048;-74
2024/03/04 01:42:09;;;;;;;28.77;17.77;;;;;;;;;;5085266;28;20040;-74
2024/03/04 01:44:36;;;;;;;29.38;17.92;;;;;;;;;;5064495;28;20118;-73
2024/03/04 01:47:04;;;;;;;30.10;17.27;;;;;;;;;;5077493;28;20443;-73
2024/03/04 01:49:31;;;;;;;28.70;17.67;;;;;;;;;;5067692;28;20546;-74
2024/03/04 01:51:58;;;;;;;28.98;16.65;;;;;;;;;;5077979;28;20058;-74
2024/03/04 01:54:25;;;;;;;31.67;18.17;;;;;;;;;;5074310;28;20062;-73
2024/03/04 01:56:51;;;;;;;32.17;18.20;;;;;;;;;;5086598;28;20080;-73
2024/03/04 01:59:18;;;;;;;27.92;17.17;;;;;;;;;;5073570;28;20047;-75
2024/03/04 02:01:45;;;;;;;27.52;16.75;;;;;;;;;;5068247;28;20059;-73
2024/03/04 02:04:12;;;;;;;30.90;17.33;;;;;;;;;;5066824;28;20048;-73
2024/03/04 02:06:39;;;;;;;36.45;19.65;;;;;;;;;;5072126;28;20432;-73
2024/03/04 02:09:07;;;;;;;33.58;19.10;;;;;;;;;;5080101;28;20135;-73
2024/03/04 02:11:34;;;;;;;32.53;19.13;;;;;;;;;;5087634;28;20143;-74
2024/03/04 02:14:01;;;;;;;35.15;18.63;;;;;;;;;;5074963;28;20917;-72
2024/03/04 02:16:27;;;;;;;32.63;18.33;;;;;;;;;;5068732;28;20836;-73
2024/03/04 02:18:55;;;;;;;29.52;18.02;;;;;;;;;;5075494;28;20059;-72
2024/03/04 02:21:21;;;;;;;31.35;16.95;;;;;;;;;;5081352;28;20556;-71
2024/03/04 02:23:48;;;;;;;25.45;16.58;;;;;;;;;;5078107;28;20077;-72
2024/03/04 02:26:14;;;;;;;26.75;17.00;;;;;;;;;;5075595;28;20413;-71
2024/03/04 02:28:41;;;;;;;31.42;17.95;;;;;;;;;;5076354;28;20048;-72
2024/03/04 02:31:07;;;;;;;30.70;17.35;;;;;;;;;;5078843;28;20163;-73
2024/03/04 02:33:34;;;;;;;32.92;17.55;;;;;;;;;;5056278;28;20055;-72
2024/03/04 02:36:00;;;;;;;31.55;18.63;;;;;;;;;;5075849;28;20052;-71
2024/03/04 02:38:28;;;;;;;43.00;21.13;;;;;;;;;;5058184;28;20056;-71
2024/03/04 02:40:55;;;;;;;42.55;22.35;;;;;;;;;;5055412;28;20464;-73
2024/03/04 02:43:22;;;;;;;41.95;23.48;;;;;;;;;;5063532;28;20140;-71
2024/03/04 02:45:48;;;;;;;42.47;23.70;;;;;;;;;;5051668;28;20536;-71
2024/03/04 02:48:14;;;;;;;41.25;23.17;;;;;;;;;;5075836;28;20066;-71
2024/03/04 02:50:41;;;;;;;40.67;23.25;;;;;;;;;;5079266;28;20742;-71
2024/03/04 02:53:08;;;;;;;38.83;21.83;;;;;;;;;;5074489;28;20088;-72
2024/03/04 02:55:37;;;;;;;38.25;22.98;;;;;;;;;;5068550;28;20041;-72
2024/03/04 02:58:03;;;;;;;;;;;;;;;;;;5057492;28;20044;-71
2024/03/04 03:00:30;;;;;;;44.67;22.52;;;;;;;;;;5077094;28;19926;-70
2024/03/04 03:02:56;;;;;;;37.80;21.17;;;;;;;;;;5075533;28;20259;-72
2024/03/04 03:05:22;;;;;;;32.38;17.77;;;;;;;;;;5086229;28;20048;-72
2024/03/04 03:07:49;;;;;;;26.20;16.67;;;;;;;;;;5072472;28;20090;-71
2024/03/04 03:10:15;;;;;;;27.92;15.20;;;;;;;;;;5077294;28;20105;-72
2024/03/04 03:12:42;;;;;;;24.70;13.73;;;;;;;;;;5077173;28;20122;-72
2024/03/04 03:15:08;;;;;;;27.08;14.23;;;;;;;;;;5053624;28;20098;-72
2024/03/04 03:17:36;;;;;;;23.00;13.45;;;;;;;;;;5073003;28;20044;-71
2024/03/04 03:20:12;;;;;;;27.58;14.20;;;;;;;;;;5068179;28;20048;-71
2024/03/04 03:22:39;;;;;;;28.63;14.70;;;;;;;;;;5075965;28;20529;-74
2024/03/04 03:25:05;;;;;;;24.23;13.30;;;;;;;;;;5055374;28;20145;-74
2024/03/04 03:27:31;;;;;;;19.95;12.68;;;;;;;;;;5068342;28;20382;-72
2024/03/04 03:29:58;;;;;;;24.05;12.68;;;;;;;;;;5065510;28;20052;-73
2024/03/04 03:32:24;;;;;;;21.85;11.73;;;;;;;;;;5072429;28;20076;-73
2024/03/04 03:34:51;;;;;;;23.98;12.00;;;;;;;;;;5064372;28;20469;-74
2024/03/04 03:37:17;;;;;;;22.77;11.25;;;;;;;;;;5059319;28;20523;-74
2024/03/04 03:39:44;;;;;;;16.00;9.48;;;;;;;;;;5067903;28;20048;-72
2024/03/04 03:42:11;;;;;;;17.23;8.35;;;;;;;;;;5077044;28;20527;-71
2024/03/04 03:44:37;;;;;;;13.57;7.18;;;;;;;;;;5082593;28;20113;-75
2024/03/04 03:47:04;;;;;;;11.15;6.47;;;;;;;;;;5066328;28;20044;-72
2024/03/04 03:49:30;;;;;;;12.68;6.15;;;;;;;;;;5066672;28;20047;-72
2024/03/04 03:51:57;;;;;;;12.00;5.65;;;;;;;;;;5077676;28;20241;-72
2024/03/04 03:54:23;;;;;;;10.30;5.65;;;;;;;;;;5071023;28;20127;-72
2024/03/04 03:56:51;;;;;;;13.07;5.47;;;;;;;;;;5067071;28;20132;-71
2024/03/04 03:59:17;;;;;;;11.48;5.70;;;;;;;;;;5071709;28;20041;-71
2024/03/04 04:01:44;;;;;;;11.23;5.72;;;;;;;;;;5071942;28;20416;-72
2024/03/04 04:04:10;;;;;;;13.07;5.40;;;;;;;;;;5067947;28;20067;-75
2024/03/04 04:06:37;;;;;;;12.23;5.75;;;;;;;;;;5061765;28;20063;-72
2024/03/04 04:09:04;;;;;;;15.38;6.40;;;;;;;;;;5084686;28;20131;-74
2024/03/04 04:11:30;;;;;;;12.10;5.53;;;;;;;;;;5076890;28;20047;-74
2024/03/04 04:13:56;;;;;;;12.77;5.55;;;;;;;;;;5054506;28;20040;-74
2024/03/04 04:16:26;;;;;;;13.25;5.70;;;;;;;;;;5066394;28;20089;-75
2024/03/04 04:18:52;;;;;;;16.00;6.13;;;;;;;;;;5074916;28;20579;-73
2024/03/04 04:21:22;;;;;;;14.65;5.65;;;;;;;;;;5050192;28;20143;-74
2024/03/04 04:23:48;;;;;;;13.40;6.00;;;;;;;;;;5069220;28;20180;-73
2024/03/04 04:26:24;;;;;;;14.23;6.03;;;;;;;;;;5072504;28;20072;-73
2024/03/04 04:28:51;;;;;;;9.13;5.05;;;;;;;;;;5072164;28;20067;-74
2024/03/04 04:31:21;;;;;;;13.15;5.47;;;;;;;;;;5085313;28;20143;-74
2024/03/04 04:33:47;;;;;;;10.45;5.35;;;;;;;;;;5072123;28;20055;-71
2024/03/04 04:36:15;;;;;;;12.20;5.82;;;;;;;;;;5066684;28;20581;-73
2024/03/04 04:38:41;;;;;;;13.85;5.82;;;;;;;;;;5078857;28;20143;-71
2024/03/04 04:41:08;;;;;;;12.30;5.00;;;;;;;;;;5082127;28;20056;-73
2024/03/04 04:43:35;;;;;;;10.57;5.30;;;;;;;;;;5069939;28;20102;-71
2024/03/04 04:46:02;;;;;;;12.68;5.50;;;;;;;;;;5088180;28;20051;-72
2024/03/04 04:48:29;;;;;;;8.77;5.32;;;;;;;;;;5076360;28;20048;-71
2024/03/04 04:50:55;;;;;;;10.50;5.72;;;;;;;;;;5070097;28;20461;-71
2024/03/04 04:53:23;;;;;;;14.25;5.70;;;;;;;;;;5066187;28;20135;-72
2024/03/04 04:55:50;;;;;;;12.90;6.03;;;;;;;;;;5069898;28;20047;-72
2024/03/04 04:58:19;;;;;;;9.38;5.28;;;;;;;;;;5078831;28;20052;-71
2024/03/04 05:00:46;;;;;;;14.38;6.22;;;;;;;;;;5072222;28;20044;-71
2024/03/04 05:03:12;;;;;;;15.18;6.72;;;;;;;;;;5060247;28;20136;-73
2024/03/04 05:05:48;;;;;;;11.68;6.22;;;;;;;;;;5074061;28;20409;-71
2024/03/04 05:08:14;;;;;;;13.48;5.85;;;;;;;;;;5058647;28;20048;-71
2024/03/04 05:10:41;;;;;;;10.73;5.20;;;;;;;;;;5070023;28;20109;-73
2024/03/04 05:13:09;;;;;;;10.13;5.75;;;;;;;;;;5066218;28;20048;-72
2024/03/04 05:15:35;;;;;;;9.60;5.18;;;;;;;;;;5081893;28;20123;-71
2024/03/04 05:18:02;;;;;;;10.23;5.47;;;;;;;;;;5071178;28;20127;-72
2024/03/04 05:20:29;;;;;;;11.07;5.22;;;;;;;;;;5069579;28;20045;-72
2024/03/04 05:23:03;;;;;;;10.82;5.65;;;;;;;;;;5059275;28;20056;-74
2024/03/04 05:25:30;;;;;;;11.75;5.47;;;;;;;;;;5078134;28;20123;-72
2024/03/04 05:27:57;;;;;;;12.52;5.68;;;;;;;;;;5081749;28;20055;-72
2024/03/04 05:30:23;;;;;;;9.93;4.97;;;;;;;;;;5078006;28;20036;-72
2024/03/04 05:32:50;;;;;;;13.10;5.70;;;;;;;;;;5077560;28;20130;-71
2024/03/04 05:35:17;;;;;;;9.93;5.50;;;;;;;;;;5081234;28;20048;-72
2024/03/04 05:37:43;;;;;;;14.65;5.68;;;;;;;;;;5073827;28;20059;-71
2024/03/04 05:40:10;;;;;;;11.07;5.40;;;;;;;;;;5076880;28;20056;-71
2024/03/04 05:42:39;;;;;;;12.02;5.43;;;;;;;;;;5068227;28;20101;-72
2024/03/04 05:45:07;;;;;;;12.45;6.53;;;;;;;;;;5063312;28;20139;-73
2024/03/04 05:47:34;;;;;;;8.90;5.13;;;;;;;;;;5077345;28;20048;-73
2024/03/04 05:50:03;;;;;;;9.40;4.15;;;;;;;;;;5083134;28;20048;-74
2024/03/04 05:52:29;;;;;;;9.38;4.72;;;;;;;;;;5072547;28;20101;-72
2024/03/04 05:54:56;;;;;;;13.20;5.55;;;;;;;;;;5065356;28;20050;-73
2024/03/04 05:57:22;;;;;;;11.35;4.18;;;;;;;;;;5073812;28;20037;-73
2024/03/04 05:59:49;;;;;;;9.13;4.55;;;;;;;;;;5087808;28;20079;-74
2024/03/04 06:02:15;;;;;;;10.02;4.40;;;;;;;;;;5054378;28;20047;-73
2024/03/04 06:04:41;;;;;;;11.25;4.38;;;;;;;;;;5078195;28;20052;-73
2024/03/04 06:07:08;;;;;;;6.55;3.38;;;;;;;;;;5070134;28;20048;-73
2024/03/04 06:09:34;;;;;;;8.23;3.70;;;;;;;;;;5078769;28;20052;-74
2024/03/04 06:12:01;;;;;;;9.68;3.33;;;;;;;;;;5065177;28;20121;-72
2024/03/04 06:14:28;;;;;;;6.82;3.63;;;;;;;;;;5062474;28;20076;-73
2024/03/04 06:16:54;;;;;;;6.15;3.40;;;;;;;;;;5073741;28;20044;-72
2024/03/04 06:19:21;;;;;;;8.48;3.75;;;;;;;;;;5097112;28;20101;-73
2024/03/04 06:21:47;;;;;;;6.13;3.58;;;;;;;;;;5068115;28;20040;-73
2024/03/04 06:24:34;;;;;;;5.07;2.65;;;;;;;;;;5065338;28;20570;-73
2024/03/04 06:27:04;;;;;;;6.25;2.90;;;;;;;;;;5050430;28;20668;-73
2024/03/04 06:29:30;;;;;;;5.10;2.63;;;;;;;;;;5075020;28;20461;-73
2024/03/04 06:31:57;;;;;;;7.07;3.20;;;;;;;;;;5066653;28;20075;-73
2024/03/04 06:34:23;;;;;;;8.57;2.92;;;;;;;;;;5061609;28;20124;-74
2024/03/04 06:36:50;;;;;;;8.05;3.08;;;;;;;;;;5078726;28;20052;-73
2024/03/04 06:39:17;;;;;;;6.68;3.05;;;;;;;;;;5069810;28;20087;-73
2024/03/04 06:41:43;;;;;;;7.38;2.53;;;;;;;;;;5081216;28;20048;-73
2024/03/04 06:44:10;;;;;;;6.07;2.70;;;;;;;;;;5068450;28;20407;-73
2024/03/04 06:46:36;;;;;;;4.88;2.33;;;;;;;;;;5079806;28;20054;-73
2024/03/04 06:49:03;;;;;;;4.85;2.13;;;;;;;;;;5078183;28;20131;-72
2024/03/04 06:51:34;;;;;;;8.35;3.20;;;;;;;;;;5069038;28;20048;-73
2024/03/04 06:54:04;;;;;;;5.88;2.67;;;;;;;;;;5066139;28;20088;-73
2024/03/04 06:56:30;;;;;;;7.03;2.30;;;;;;;;;;5069729;28;20797;-73
2024/03/04 06:58:57;;;;;;;8.18;2.30;;;;;;;;;;5074419;28;20912;-72
2024/03/04 07:01:24;;;;;;;6.95;2.40;;;;;;;;;;5071798;28;20056;-73
2024/03/04 07:03:50;;;;;;;8.45;2.28;;;;;;;;;;5071265;28;20075;-73
2024/03/04 07:06:16;;;;;;;7.63;2.60;;;;;;;;;;5071636;28;20076;-73
2024/03/04 07:08:43;;;;;;;7.82;2.60;;;;;;;;;;5072173;28;20048;-73
2024/03/04 07:11:10;;;;;;;8.95;2.60;;;;;;;;;;5081298;28;20135;-73
2024/03/04 07:13:37;;;;;;;7.55;2.55;;;;;;;;;;5067352;28;20178;-72
2024/03/04 07:16:06;;;;;;;6.60;2.63;;;;;;;;;;5065963;28;20048;-73
2024/03/04 07:18:32;;;;;;;7.38;2.80;;;;;;;;;;5061601;28;20043;-73
2024/03/04 07:20:59;;;;;;;6.70;2.80;;;;;;;;;;5094131;28;20143;-73
2024/03/04 07:23:28;;;;;;;4.80;2.83;;;;;;;;;;5075857;28;20056;-72
2024/03/04 07:25:55;;;;;;;6.53;3.20;;;;;;;;;;5069486;28;20040;-73
2024/03/04 07:28:21;;;;;;;4.20;2.50;;;;;;;;;;5075905;28;20663;-73
2024/03/04 07:30:51;;;;;;;6.05;2.80;;;;;;;;;;5083047;28;20663;-73
2024/03/04 07:33:17;;;;;;;6.78;3.38;;;;;;;;;;5083637;28;20056;-73
2024/03/04 07:35:44;;;;;;;5.13;2.88;;;;;;;;;;5074750;28;20064;-73
2024/03/04 07:38:10;;;;;;;7.25;3.05;;;;;;;;;;5077427;28;20044;-73
2024/03/04 07:40:37;;;;;;;8.05;3.20;;;;;;;;;;5073059;28;20692;-73
2024/03/04 07:43:03;;;;;;;6.35;2.85;;;;;;;;;;5064736;28;20440;-73
2024/03/04 07:45:30;;;;;;;6.28;3.08;;;;;;;;;;5056320;28;20040;-72
2024/03/04 07:47:56;;;;;;;7.13;2.85;;;;;;;;;;5067562;28;20796;-74
2024/03/04 07:50:23;;;;;;;4.93;2.75;;;;;;;;;;5065768;28;20094;-74
2024/03/04 07:52:50;;;;;;;5.65;2.83;;;;;;;;;;5081824;28;20131;-74
2024/03/04 07:55:17;;;;;;;6.82;2.88;;;;;;;;;;5062553;28;20777;-73
2024/03/04 07:57:44;;;;;;;6.80;3.05;;;;;;;;;;5077969;28;20044;-73
2024/03/04 08:00:11;;;;;;;6.72;2.90;;;;;;;;;;5076448;28;20113;-73
2024/03/04 08:02:40;;;;;;;9.63;3.10;;;;;;;;;;5081680;28;20060;-74
2024/03/04 08:05:06;;;;;;;8.95;3.20;;;;;;;;;;5060482;28;20155;-73
2024/03/04 08:07:33;;;;;;;5.90;2.85;;;;;;;;;;5072445;28;20084;-74
2024/03/04 08:09:59;;;;;;;7.75;3.58;;;;;;;;;;5060909;28;20048;-74
2024/03/04 08:12:26;;;;;;;6.35;3.22;;;;;;;;;;5072836;28;20057;-73
2024/03/04 08:14:52;;;;;;;8.27;3.85;;;;;;;;;;5066749;28;20063;-73
2024/03/04 08:17:18;;;;;;;7.18;2.88;;;;;;;;;;5066989;28;20489;-74
2024/03/04 08:19:48;;;;;;;8.93;3.90;;;;;;;;;;5070279;28;20479;-74
2024/03/04 08:22:14;;;;;;;6.25;2.72;;;;;;;;;;5085825;28;20082;-74
2024/03/04 08:24:44;;;;;;;7.97;3.15;;;;;;;;;;5067026;28;20926;-73
2024/03/04 08:27:10;;;;;;;4.88;2.75;;;;;;;;;;5055415;28;20044;-72
2024/03/04 08:29:36;;;;;;;7.18;3.28;;;;;;;;;;5068183;28;20052;-73
2024/03/04 08:32:04;;;;;;;7.40;3.40;;;;;;;;;;5092988;28;20126;-73
2024/03/04 08:34:33;;;;;;;9.45;3.38;;;;;;;;;;5094759;28;20456;-74
2024/03/04 08:37:00;;;;;;;7.03;3.38;;;;;;;;;;5080560;28;20059;-73
2024/03/04 08:39:26;;;;;;;6.72;3.35;;;;;;;;;;5064418;28;20845;-74
2024/03/04 08:41:53;;;;;;;7.53;2.85;;;;;;;;;;5076418;28;20071;-73
2024/03/04 08:44:19;;;;;;;5.40;2.85;;;;;;;;;;5070175;28;20048;-73
2024/03/04 08:46:45;;;;;;;7.40;2.88;;;;;;;;;;5064379;28;20041;-73
2024/03/04 08:49:16;;;;;;;9.05;3.47;;;;;;;;;;5070659;28;20056;-73
2024/03/04 08:51:42;;;;;;;6.47;2.90;;;;;;;;;;5076658;28;20101;-73
2024/03/04 08:54:08;;;;;;;6.43;2.70;;;;;;;;;;5067040;28;20041;-73
2024/03/04 08:56:35;;;;;;;6.18;2.60;;;;;;;;;;5082988;28;20056;-73
2024/03/04 08:59:02;;;;;;;6.78;2.60;;;;;;;;;;5082043;28;20048;-74
2024/03/04 09:01:31;;;;;;;6.80;3.20;;;;;;;;;;5079147;28;20067;-73
2024/03/04 09:03:58;;;;;;;10.27;2.88;;;;;;;;;;5078214;28;20058;-74
2024/03/04 09:06:25;;;;;;;6.85;2.70;;;;;;;;;;5081179;28;20078;-73
2024/03/04 09:08:51;;;;;;;5.70;2.55;;;;;;;;;;5062325;28;20051;-73
2024/03/04 09:11:18;;;;;;;6.28;2.25;;;;;;;;;;5082089;28;20669;-73
2024/03/04 09:13:44;;;;;;;7.60;2.42;;;;;;;;;;5076126;28;20054;-73
2024/03/04 09:16:12;;;;;;;6.70;2.92;;;;;;;;;;5076401;28;20613;-72
2024/03/04 09:18:39;;;;;;;5.45;2.03;;;;;;;;;;5080267;28;20037;-72
2024/03/04 09:21:06;;;;;;;6.38;2.05;;;;;;;;;;5076723;28;20123;-71
2024/03/04 09:23:32;;;;;;;4.38;2.30;;;;;;;;;;5064617;28;20048;-71
2024/03/04 09:25:59;;;;;;;5.13;2.08;;;;;;;;;;5074060;28;20044;-72
2024/03/04 09:28:25;;;;;;;4.60;2.00;;;;;;;;;;5081580;28;20044;-71
2024/03/04 09:30:52;;;;;;;4.38;1.88;;;;;;;;;;5086723;28;20050;-71
2024/03/04 09:33:18;;;;;;;7.90;2.17;;;;;;;;;;5088011;28;20453;-72
2024/03/04 09:35:46;;;;;;;6.53;2.10;;;;;;;;;;5069667;28;20044;-72
2024/03/04 09:38:12;;;;;;;5.57;1.92;;;;;;;;;;5057572;28;20049;-72
2024/03/04 09:40:42;;;;;;;6.38;1.92;;;;;;;;;;5076383;28;20117;-71
2024/03/04 09:43:09;;;;;;;4.90;1.77;;;;;;;;;;5079497;28;20077;-71
2024/03/04 09:45:37;;;;;;;6.50;2.08;;;;;;;;;;5073397;28;20074;-71
2024/03/04 09:48:04;;;;;;;8.05;2.20;;;;;;;;;;5082119;28;20055;-71
2024/03/04 09:50:31;;;;;;;9.82;2.10;;;;;;;;;;5085166;28;20058;-71
2024/03/04 09:52:58;;;;;;;8.38;2.45;;;;;;;;;;5076815;28;20051;-71
2024/03/04 09:55:24;;;;;;;6.53;2.65;;;;;;;;;;5070270;28;20554;-71
2024/03/04 09:57:51;;;;;;;7.15;2.17;;;;;;;;;;5079433;28;20064;-71
2024/03/04 10:00:18;;;;;;;5.57;2.00;;;;;;;;;;5058863;28;20465;-71
2024/03/04 10:02:44;;;;;;;4.60;1.80;;;;;;;;;;5065503;28;20106;-71
2024/03/04 10:05:11;;;;;;;4.45;1.85;;;;;;;;;;5065711;28;20075;-72
2024/03/04 10:07:38;;;;;;;6.85;2.08;;;;;;;;;;5086575;28;20086;-71
2024/03/04 10:10:06;;;;;;;5.03;1.75;;;;;;;;;;5076679;28;20056;-71
2024/03/04 10:12:32;;;;;;;3.83;2.10;;;;;;;;;;5081290;28;20098;-71
2024/03/04 10:15:01;;;;;;;4.82;1.75;;;;;;;;;;5065601;28;20126;-71
2024/03/04 10:17:28;;;;;;;4.60;1.77;;;;;;;;;;5083117;28;20125;-71
2024/03/04 10:19:58;;;;;;;5.25;1.70;;;;;;;;;;5069544;28;20048;-71
2024/03/04 10:22:25;;;;;;;4.25;1.77;;;;;;;;;;5052696;28;20108;-73
2024/03/04 10:25:05;;;;;;;4.72;2.00;;;;;;;;;;5074826;28;20047;-73
2024/03/04 10:27:32;;;;;;;4.68;2.05;;;;;;;;;;5065175;28;20131;-73
2024/03/04 10:30:15;;;;;;;8.50;2.20;;;;;;;;;;5072384;28;20048;-73
2024/03/04 10:32:48;;;;;;;3.80;1.58;;;;;;;;;;5050161;28;20689;-74
2024/03/04 10:35:16;;;;;;;4.10;1.40;;;;;;;;;;5066446;28;20082;-73
2024/03/04 10:37:42;;;;;;;7.82;2.53;;;;;;;;;;5086826;28;20056;-73
2024/03/04 10:40:09;;;;;;;6.35;1.90;;;;;;;;;;5068993;28;20058;-72
2024/03/04 10:42:40;;;;;;;4.57;1.83;;;;;;;;;;5087074;28;20056;-73
2024/03/04 10:45:07;;;;;;;7.25;1.98;;;;;;;;;;5084702;28;20135;-73
2024/03/04 10:47:33;;;;;;;6.30;1.60;;;;;;;;;;5072055;28;20060;-72
2024/03/04 10:50:00;;;;;;;6.20;1.80;;;;;;;;;;5094866;28;20044;-72
2024/03/04 10:52:27;;;;;;;4.45;1.75;;;;;;;;;;5060002;28;20675;-73
2024/03/04 10:54:53;;;;;;;8.80;1.73;;;;;;;;;;5074676;28;20054;-72
2024/03/04 10:57:29;;;;;;;5.05;1.60;;;;;;;;;;5072820;28;20101;-72
2024/03/04 11:00:17;;;;;;;6.30;1.60;;;;;;;;;;5076556;28;20059;-71
2024/03/04 11:02:53;;;;;;;3.28;1.70;;;;;;;;;;5066183;28;20044;-72
2024/03/04 11:05:21;;;;;;;4.25;1.63;;;;;;;;;;5083279;28;20040;-73
2024/03/04 11:07:49;;;;;;;4.78;1.70;;;;;;;;;;5067560;28;20044;-73
2024/03/04 11:10:21;;;;;;;7.53;1.50;;;;;;;;;;5061583;28;20549;-72
2024/03/04 11:12:58;;;;;;;5.25;1.75;;;;;;;;;;5062577;28;20052;-73
2024/03/04 11:15:31;;;;;;;4.50;1.10;;;;;;;;;;5061832;28;20079;-72
2024/03/04 11:18:00;;;;;;;3.70;1.42;;;;;;;;;;5079198;28;20105;-72
2024/03/04 11:20:28;;;;;;;5.50;1.50;;;;;;;;;;5070158;28;20105;-71
2024/03/04 11:22:55;;;;;;;4.40;1.40;;;;;;;;;;5066572;28;20149;-72
2024/03/04 11:25:22;;;;;;;5.80;1.60;;;;;;;;;;5057361;28;20271;-72
2024/03/04 11:27:49;;;;;;;4.97;1.45;;;;;;;;;;5079504;28;20117;-72
2024/03/04 11:30:16;;;;;;;3.65;1.15;;;;;;;;;;5068560;28;20044;-71
2024/03/04 11:32:43;;;;;;;2.33;1.08;;;;;;;;;;5079973;28;20048;-72
2024/03/04 11:35:10;;;;;;;5.82;1.98;;;;;;;;;;5079819;28;20416;-71
2024/03/04 11:37:52;;;;;;;3.03;1.00;;;;;;;;;;5059066;28;20232;-73
2024/03/04 11:40:26;;;;;;;2.17;1.00;;;;;;;;;;5072736;28;20048;-72
2024/03/04 11:42:53;;;;;;;1.63;0.70;;;;;;;;;;5084476;28;20090;-73
2024/03/04 11:45:21;;;;;;;4.75;1.10;;;;;;;;;;5080599;28;20135;-73
2024/03/04 11:47:49;;;;;;;3.50;0.82;;;;;;;;;;5068888;28;20052;-72
2024/03/04 11:50:34;;;;;;;3.15;1.17;;;;;;;;;;5063937;28;20110;-73
2024/03/04 11:53:19;;;;;;;5.43;1.00;;;;;;;;;;5071010;28;20048;-72
2024/03/04 11:55:47;;;;;;;2.42;0.77;;;;;;;;;;5063731;28;20131;-72
2024/03/04 11:58:14;;;;;;;4.40;0.93;;;;;;;;;;5086010;28;20040;-73
2024/03/04 12:00:41;;;;;;;2.63;0.88;;;;;;;;;;5082568;28;20558;-72
2024/03/04 12:03:09;;;;;;;2.65;0.77;;;;;;;;;;5070828;28;20473;-73
2024/03/04 12:05:37;;;;;;;2.25;1.00;;;;;;;;;;5051647;28;20044;-72
2024/03/04 12:08:04;;;;;;;1.42;0.85;;;;;;;;;;5065222;28;20496;-72
2024/03/04 12:10:47;;;;;;;1.77;1.10;;;;;;;;;;5070985;28;20155;-72
2024/03/04 12:13:14;;;;;;;3.88;0.80;;;;;;;;;;5061365;28;20487;-74
2024/03/04 12:15:41;;;;;;;4.75;0.82;;;;;;;;;;5071591;28;20041;-71
2024/03/04 12:18:11;;;;;;;2.83;1.02;;;;;;;;;;5080903;28;20056;-72
2024/03/04 12:20:37;;;;;;;1.90;0.90;;;;;;;;;;5064851;28;20048;-72
2024/03/04 12:23:04;;;;;;;4.43;1.35;;;;;;;;;;5073952;28;20056;-72
2024/03/04 12:25:30;;;;;;;4.15;0.80;;;;;;;;;;5068556;28;20432;-72
2024/03/04 12:27:57;;;;;;;4.55;1.42;;;;;;;;;;5069600;28;20269;-71
2024/03/04 12:30:24;;;;;;;3.70;0.93;;;;;;;;;;5075714;28;20105;-72
2024/03/04 12:32:52;;;;;;;3.42;1.10;;;;;;;;;;5085946;28;20051;-71
2024/03/04 12:35:26;;;;;;;2.25;0.65;;;;;;;;;;5073151;28;20846;-71
2024/03/04 12:37:53;;;;;;;2.13;0.70;;;;;;;;;;5066332;28;20050;-72
2024/03/04 12:40:20;;;;;;;1.52;0.90;;;;;;;;;;5056851;28;20036;-72
2024/03/04 12:43:01;;;;;;;2.60;0.82;;;;;;;;;;5064634;28;20473;-70
2024/03/04 12:45:29;;;;;;;1.75;0.65;;;;;;;;;;5076947;28;20052;-72
2024/03/04 12:47:56;;;;;;;1.13;0.83;;;;;;;;;;5070625;28;20051;-73
2024/03/04 12:50:25;;;;;;;2.03;1.00;;;;;;;;;;5058751;28;20049;-72
2024/03/04 12:52:51;;;;;;;;;;;;;;;;;;5079337;28;20056;-73
2024/03/04 12:55:19;;;;;;;2.42;1.08;;;;;;;;;;5066608;28;19924;-71
2024/03/04 12:57:47;;;;;;;2.90;1.08;;;;;;;;;;5080564;28;20048;-72
2024/03/04 13:00:14;;;;;;;3.88;0.98;;;;;;;;;;5077449;28;20131;-71
2024/03/04 13:02:47;;;;;;;3.35;1.00;;;;;;;;;;5057184;28;20040;-72
2024/03/04 13:05:14;;;;;;;2.90;0.98;;;;;;;;;;5088007;28;20756;-71
2024/03/04 13:07:41;;;;;;;3.83;0.90;;;;;;;;;;5070886;28;20040;-71
2024/03/04 13:10:09;;;;;;;1.40;0.80;;;;;;;;;;5068074;28;20059;-71
2024/03/04 13:12:36;;;;;;;3.55;1.60;;;;;;;;;;5088226;28;20047;-71
2024/03/04 13:15:07;;;;;;;2.72;1.10;;;;;;;;;;5056189;28;20041;-71
2024/03/04 13:17:34;;;;;;;2.25;0.90;;;;;;;;;;5082157;28;20529;-72
2024/03/04 13:20:10;;;;;;;3.22;1.08;;;;;;;;;;5070261;28;20048;-72
2024/03/04 13:22:37;;;;;;;2.97;0.98;;;;;;;;;;5079079;28;20127;-72
2024/03/04 13:25:06;;;;;;;2.38;1.00;;;;;;;;;;5055876;28;20044;-72
2024/03/04 13:27:33;;;;;;;4.07;1.20;;;;;;;;;;5076752;28;20052;-72
2024/03/04 13:30:02;;;;;;;3.38;1.15;;;;;;;;;;5068746;28;20079;-73
2024/03/04 13:32:28;;;;;;;;;;;;;;;;;;5086958;28;20060;-72
2024/03/04 13:34:55;;;;;;;3.90;1.42;;;;;;;;;;5100992;27;20018;-73
2024/03/04 13:37:21;;;;;;;3.80;1.23;;;;;;;;;;5065218;28;20051;-72
2024/03/04 13:39:48;;;;;;;5.60;1.40;;;;;;;;;;5054276;28;20051;-72
2024/03/04 13:42:15;;;;;;;4.00;1.38;;;;;;;;;;5073290;28;20464;-73
2024/03/04 13:44:42;;;;;;;2.67;1.27;;;;;;;;;;5085708;28;20052;-73
2024/03/04 13:47:08;;;;;;;1.65;1.10;;;;;;;;;;5077056;28;20447;-73
2024/03/04 13:49:35;;;;;;;2.33;1.10;;;;;;;;;;5080669;28;20048;-71
2024/03/04 13:52:02;;;;;;;1.60;1.25;;;;;;;;;;5076784;28;20167;-72
2024/03/04 13:54:30;;;;;;;5.43;1.40;;;;;;;;;;5074102;28;20492;-73
2024/03/04 13:56:56;;;;;;;2.30;1.30;;;;;;;;;;5078401;28;20044;-71
2024/03/04 13:59:23;;;;;;;2.78;1.60;;;;;;;;;;5077951;28;20040;-73
2024/03/04 14:01:49;;;;;;;3.17;1.42;;;;;;;;;;5087439;28;20041;-73
2024/03/04 14:04:16;;;;;;;3.00;1.40;;;;;;;;;;5051681;28;20059;-72
2024/03/04 14:06:43;;;;;;;2.20;1.42;;;;;;;;;;5076639;28;20059;-72
2024/03/04 14:09:10;;;;;;;2.45;1.45;;;;;;;;;;5066652;28;20056;-72
2024/03/04 14:11:36;;;;;;;5.85;1.42;;;;;;;;;;5072102;28;20545;-72
2024/03/04 14:14:03;;;;;;;4.95;1.85;;;;;;;;;;5075564;28;20060;-71
2024/03/04 14:16:29;;;;;;;2.22;1.20;;;;;;;;;;5075171;28;20127;-72
2024/03/04 14:18:56;;;;;;;3.85;1.30;;;;;;;;;;5073774;28;20041;-72
2024/03/04 14:21:22;;;;;;;2.90;1.55;;;;;;;;;;5062864;28;20051;-72
2024/03/04 14:23:48;;;;;;;2.90;1.48;;;;;;;;;;5059091;28;20473;-73
2024/03/04 14:26:15;;;;;;;3.10;1.30;;;;;;;;;;5068166;28;20088;-72
2024/03/04 14:28:41;;;;;;;4.30;1.42;;;;;;;;;;5082600;28;20452;-73
2024/03/04 14:31:08;;;;;;;3.25;1.27;;;;;;;;;;5059383;28;20040;-73
2024/03/04 14:33:34;;;;;;;3.22;1.23;;;;;;;;;;5074904;28;20046;-73
2024/03/04 14:36:01;;;;;;;3.70;1.50;;;;;;;;;;5057181;28;20040;-73
2024/03/04 14:38:28;;;;;;;2.70;1.02;;;;;;;;;;5065596;28;20048;-73